createdAt,value
2022-08-22T00:00:43.718Z,39.48
2022-08-22T00:02:57.439Z,13.78
2022-08-22T00:03:22.922Z,33.98
2022-08-22T00:06:04.186Z,38.40
2022-08-22T00:08:42.721Z,35.55
2022-08-22T00:11:22.258Z,38.28
2022-08-22T00:14:01.407Z,35.68
2022-08-22T00:16:39.086Z,35.95
2022-08-22T00:19:17.672Z,36.73
2022-08-22T00:21:54.796Z,41.70
2022-08-22T00:24:31.474Z,38.53
2022-08-22T00:27:07.429Z,38.42
2022-08-22T00:29:46.251Z,38.88
2022-08-22T00:32:22.533Z,43.30
2022-08-22T00:34:59.801Z,40.83
2022-08-22T00:37:36.935Z,39.73
2022-08-22T00:40:15.891Z,38.33
2022-08-22T00:43:15.776Z,42.45
2022-08-22T00:46:02.302Z,44.00
2022-08-22T00:49:12.818Z,42.65
2022-08-22T00:52:00.711Z,42.75
2022-08-22T00:54:43.447Z,41.13
2022-08-22T00:57:46.571Z,44.50
2022-08-22T01:00:22.010Z,43.73
2022-08-22T01:03:22.316Z,44.63
2022-08-22T01:06:05.442Z,45.30
2022-08-22T01:08:47.766Z,45.40
2022-08-22T01:11:31.195Z,49.58
2022-08-22T01:14:16.600Z,47.33
2022-08-22T01:17:13.238Z,48.83
2022-08-22T01:20:21.756Z,47.90
2022-08-22T01:23:28.642Z,48.17
2022-08-22T01:26:31.530Z,48.87
2022-08-22T01:29:37.388Z,51.90
2022-08-22T01:33:06.595Z,53.00
2022-08-22T01:39:35.449Z,52.45
2022-08-22T01:42:39.534Z,48.20
2022-08-22T01:45:39.047Z,51.68
2022-08-22T01:48:15.386Z,51.92
2022-08-22T01:50:51.166Z,49.70
2022-08-22T01:53:28.167Z,51.83
2022-08-22T01:58:38.640Z,50.08
2022-08-22T02:01:20.330Z,50.83
2022-08-22T02:04:00.998Z,52.35
2022-08-22T02:06:42.293Z,51.68
2022-08-22T02:09:24.335Z,52.65
2022-08-22T02:12:00.365Z,53.95
2022-08-22T02:14:41.825Z,55.00
2022-08-22T02:17:19.916Z,53.35
2022-08-22T02:19:58.253Z,53.08
2022-08-22T02:22:44.795Z,52.73
2022-08-22T02:25:19.482Z,53.60
2022-08-22T02:27:57.602Z,55.05
2022-08-22T02:30:35.197Z,51.80
2022-08-22T02:33:11.457Z,52.80
2022-08-22T02:35:48.782Z,53.00
2022-08-22T02:38:28.492Z,54.60
2022-08-22T02:41:10.589Z,48.48
2022-08-22T02:43:47.780Z,55.40
2022-08-22T02:46:29.015Z,55.25
2022-08-22T02:49:06.869Z,42.38
2022-08-22T02:51:43.443Z,45.63
2022-08-22T02:54:21.217Z,53.40
2022-08-22T02:59:34.579Z,54.75
2022-08-22T03:05:23.273Z,51.70
2022-08-22T03:08:00.413Z,47.75
2022-08-22T03:10:38.176Z,51.28
2022-08-22T03:13:14.262Z,46.05
2022-08-22T03:15:50.089Z,52.15
2022-08-22T03:18:27.564Z,50.40
2022-08-22T03:21:03.736Z,50.95
2022-08-22T03:23:40.639Z,45.78
2022-08-22T03:26:17.794Z,51.42
2022-08-22T03:28:58.871Z,46.37
2022-08-22T03:31:31.022Z,47.00
2022-08-22T03:34:22.924Z,46.60
2022-08-22T03:37:06.701Z,42.78
2022-08-22T03:39:50.031Z,49.10
2022-08-22T03:43:00.846Z,51.70
2022-08-22T03:46:17.817Z,51.05
2022-08-22T03:49:23.821Z,54.88
2022-08-22T03:52:14.116Z,54.55
2022-08-22T03:55:12.616Z,51.37
2022-08-22T03:58:15.860Z,53.15
2022-08-22T04:04:23.934Z,54.60
2022-08-22T04:07:28.329Z,52.75
2022-08-22T04:13:36.302Z,55.55
2022-08-22T04:16:23.904Z,57.55
2022-08-22T04:22:12.284Z,56.95
2022-08-22T04:25:05.863Z,57.48
2022-08-22T04:27:40.697Z,60.15
2022-08-22T04:30:17.876Z,53.80
2022-08-22T04:32:57.662Z,60.70
2022-08-22T04:35:34.287Z,61.48
2022-08-22T04:38:11.639Z,61.37
2022-08-22T04:40:48.170Z,53.78
2022-08-22T04:43:25.377Z,60.03
2022-08-22T04:46:01.929Z,58.40
2022-08-22T04:51:23.281Z,59.83
2022-08-22T04:54:10.791Z,59.35
2022-08-22T04:59:20.734Z,59.75
2022-08-22T05:01:59.344Z,59.20
2022-08-22T05:04:35.866Z,65.03
2022-08-22T05:07:12.858Z,69.03
2022-08-22T05:09:49.434Z,68.63
2022-08-22T05:12:26.185Z,67.87
2022-08-22T05:17:46.761Z,76.22
2022-08-22T05:20:23.584Z,87.37
2022-08-22T05:22:59.912Z,93.23
2022-08-22T05:25:36.952Z,87.60
2022-08-22T05:28:14.037Z,94.75
2022-08-22T05:30:48.957Z,96.78
2022-08-22T05:33:25.228Z,95.97
2022-08-22T05:36:01.875Z,96.30
2022-08-22T05:38:38.240Z,100.12
2022-08-22T05:41:14.940Z,101.25
2022-08-22T05:43:50.297Z,100.47
2022-08-22T05:46:27.067Z,99.95
2022-08-22T05:49:04.021Z,93.07
2022-08-22T05:51:40.225Z,98.27
2022-08-22T05:54:16.679Z,96.90
2022-08-22T05:56:53.199Z,107.72
2022-08-22T05:59:29.249Z,92.20
2022-08-22T06:02:06.965Z,106.03
2022-08-22T06:04:43.923Z,102.72
2022-08-22T06:07:22.311Z,107.13
2022-08-22T06:10:15.669Z,107.43
2022-08-22T06:12:53.514Z,110.63
2022-08-22T06:15:31.319Z,112.40
2022-08-22T06:18:10.443Z,111.17
2022-08-22T06:20:47.050Z,109.10
2022-08-22T06:23:23.554Z,112.90
2022-08-22T06:26:00.299Z,116.35
2022-08-22T06:28:37.128Z,114.70
2022-08-22T06:31:15.924Z,115.25
2022-08-22T06:33:52.257Z,120.15
2022-08-22T06:36:34.224Z,117.72
2022-08-22T06:39:15.879Z,121.00
2022-08-22T06:41:54.005Z,122.45
2022-08-22T06:44:32.328Z,117.80
2022-08-22T06:47:11.765Z,114.82
2022-08-22T06:49:47.323Z,110.55
2022-08-22T06:52:23.821Z,118.60
2022-08-22T06:55:01.063Z,122.92
2022-08-22T06:57:40.708Z,122.45
2022-08-22T07:00:18.389Z,122.62
2022-08-22T07:05:28.992Z,111.17
2022-08-22T07:08:08.657Z,116.77
2022-08-22T07:10:45.721Z,120.92
2022-08-22T07:13:21.032Z,121.00
2022-08-22T07:15:56.989Z,116.65
2022-08-22T07:18:33.270Z,122.15
2022-08-22T07:21:09.421Z,121.80
2022-08-22T07:23:47.068Z,121.00
2022-08-22T07:26:24.388Z,122.82
2022-08-22T07:29:00.702Z,120.15
2022-08-22T07:31:40.100Z,110.52
2022-08-22T07:34:24.010Z,119.08
2022-08-22T07:37:02.415Z,107.43
2022-08-22T07:39:39.339Z,112.10
2022-08-22T07:42:18.993Z,113.03
2022-08-22T07:45:00.877Z,114.47
2022-08-22T07:47:56.059Z,106.83
2022-08-22T07:50:35.298Z,103.95
2022-08-22T07:53:11.994Z,104.70
2022-08-22T07:55:49.917Z,91.85
2022-08-22T07:58:26.400Z,93.47
2022-08-22T08:01:01.106Z,93.87
2022-08-22T08:03:35.515Z,94.32
2022-08-22T08:06:10.296Z,89.55
2022-08-22T08:08:46.320Z,96.65
2022-08-22T08:11:21.753Z,86.35
2022-08-22T08:13:58.943Z,78.62
2022-08-22T08:16:37.932Z,88.60
2022-08-22T08:19:13.991Z,91.50
2022-08-22T08:21:50.843Z,87.62
2022-08-22T08:24:27.695Z,84.28
2022-08-22T08:27:22.750Z,88.15
2022-08-22T08:29:59.216Z,90.30
2022-08-22T08:32:36.821Z,91.85
2022-08-22T08:35:14.249Z,91.78
2022-08-22T08:37:51.556Z,89.40
2022-08-22T08:40:32.896Z,88.70
2022-08-22T08:43:30.113Z,88.37
2022-08-22T08:46:58.734Z,87.92
2022-08-22T08:50:04.805Z,87.80
2022-08-22T08:52:51.044Z,82.82
2022-08-22T08:55:29.638Z,87.02
2022-08-22T08:58:17.674Z,84.85
2022-08-22T09:00:59.322Z,87.00
2022-08-22T09:07:22.647Z,80.62
2022-08-22T09:10:06.498Z,80.70
2022-08-22T09:12:56.143Z,81.80
2022-08-22T09:18:25.071Z,83.55
2022-08-22T09:21:32.791Z,80.28
2022-08-22T09:24:16.735Z,85.90
2022-08-22T09:26:53.366Z,84.87
2022-08-22T09:29:54.962Z,84.75
2022-08-22T09:32:23.983Z,83.78
2022-08-22T09:35:05.473Z,84.85
2022-08-22T09:37:46.579Z,86.67
2022-08-22T09:43:03.377Z,84.65
2022-08-22T09:45:51.395Z,82.80
2022-08-22T09:48:51.352Z,79.85
2022-08-22T09:54:32.997Z,74.17
2022-08-22T09:57:19.856Z,58.30
2022-08-22T10:00:00.224Z,62.53
2022-08-22T10:02:43.371Z,57.70
2022-08-22T10:05:41.080Z,59.50
2022-08-22T10:08:12.973Z,58.02
2022-08-22T10:11:06.645Z,58.75
2022-08-22T10:13:57.536Z,61.08
2022-08-22T10:16:38.961Z,64.30
2022-08-22T10:19:18.881Z,61.02
2022-08-22T10:22:15.851Z,64.35
2022-08-22T10:24:54.641Z,66.97
2022-08-22T10:27:34.551Z,65.50
2022-08-22T10:30:13.375Z,63.65
2022-08-22T10:32:50.258Z,52.00
2022-08-22T10:38:02.187Z,49.95
2022-08-22T10:40:40.396Z,39.58
2022-08-22T10:43:16.831Z,39.92
2022-08-22T10:45:53.449Z,41.37
2022-08-22T10:48:33.785Z,40.73
2022-08-22T10:51:16.505Z,30.80
2022-08-22T10:56:59.431Z,21.20
2022-08-22T10:59:40.409Z,19.32
2022-08-22T11:02:53.195Z,19.70
2022-08-22T11:05:44.842Z,23.92
2022-08-22T11:09:07.826Z,17.62
2022-08-22T11:11:47.954Z,18.40
2022-08-22T11:14:29.562Z,17.75
2022-08-22T11:17:27.392Z,17.25
2022-08-22T11:19:53.343Z,19.45
2022-08-22T11:22:34.979Z,19.77
2022-08-22T11:25:38.849Z,18.35
2022-08-22T11:28:37.590Z,16.93
2022-08-22T11:31:16.614Z,15.50
2022-08-22T11:33:54.916Z,13.58
2022-08-22T11:36:32.192Z,16.20
2022-08-22T11:39:18.399Z,17.92
2022-08-22T11:41:52.769Z,17.60
2022-08-22T11:44:31.342Z,17.37
2022-08-22T11:47:11.155Z,17.23
2022-08-22T11:50:13.551Z,15.43
2022-08-22T11:53:01.496Z,12.35
2022-08-22T11:55:39.384Z,12.25
2022-08-22T11:58:28.686Z,11.20
2022-08-22T12:03:45.122Z,10.15
2022-08-22T12:06:49.714Z,10.63
2022-08-22T12:09:45.550Z,10.08
2022-08-22T12:12:42.169Z,11.15
2022-08-22T12:15:21.313Z,9.98
2022-08-22T12:21:47.119Z,7.33
2022-08-22T12:24:35.739Z,7.03
2022-08-22T12:27:28.449Z,8.15
2022-08-22T12:30:03.295Z,7.85
2022-08-22T12:32:50.416Z,7.20
2022-08-22T12:35:48.477Z,9.10
2022-08-22T12:38:38.084Z,9.65
2022-08-22T12:41:28.439Z,9.75
2022-08-22T12:43:59.690Z,11.85
2022-08-22T12:46:47.410Z,10.82
2022-08-22T12:49:36.025Z,11.08
2022-08-22T12:52:20.164Z,12.82
2022-08-22T12:55:10.976Z,11.93
2022-08-22T12:57:50.298Z,11.33
2022-08-22T13:00:30.152Z,11.40
2022-08-22T13:03:06.187Z,12.10
2022-08-22T13:05:42.161Z,10.53
2022-08-22T13:08:23.864Z,11.35
2022-08-22T13:11:03.361Z,10.93
2022-08-22T13:13:41.403Z,11.38
2022-08-22T13:16:19.229Z,12.77
2022-08-22T13:18:55.990Z,11.63
2022-08-22T13:21:34.730Z,11.68
2022-08-22T13:24:11.497Z,12.05
2022-08-22T13:26:51.751Z,13.15
2022-08-22T13:29:39.464Z,12.18
2022-08-22T13:32:04.675Z,9.85
2022-08-22T13:34:43.702Z,8.73
2022-08-22T13:37:20.231Z,8.40
2022-08-22T13:39:58.067Z,8.90
2022-08-22T13:42:35.097Z,4.65
2022-08-22T13:45:14.829Z,4.60
2022-08-22T13:47:55.305Z,4.55
2022-08-22T13:50:37.048Z,5.92
2022-08-22T13:53:09.764Z,4.80
2022-08-22T13:55:49.201Z,4.53
2022-08-22T13:58:25.678Z,4.40
2022-08-22T14:03:48.450Z,4.40
2022-08-22T14:06:35.434Z,4.33
2022-08-22T14:09:08.447Z,3.65
2022-08-22T14:14:17.309Z,4.35
2022-08-22T14:16:55.088Z,4.78
2022-08-22T14:22:07.803Z,2.97
2022-08-22T14:24:46.560Z,3.22
2022-08-22T14:27:33.061Z,3.98
2022-08-22T14:30:11.581Z,4.37
2022-08-22T14:32:49.000Z,3.60
2022-08-22T14:35:34.633Z,3.67
2022-08-22T14:38:05.339Z,3.75
2022-08-22T14:40:42.065Z,3.65
2022-08-22T14:43:22.460Z,3.40
2022-08-22T14:46:01.997Z,3.42
2022-08-22T14:48:40.753Z,3.67
2022-08-22T14:51:21.341Z,3.17
2022-08-22T14:53:56.300Z,3.50
2022-08-22T14:56:33.632Z,3.58
2022-08-22T14:59:10.986Z,3.87
2022-08-22T15:01:58.354Z,3.22
2022-08-22T15:04:36.746Z,3.52
2022-08-22T15:07:12.011Z,3.80
2022-08-22T15:09:48.127Z,3.95
2022-08-22T15:12:28.181Z,3.35
2022-08-22T15:15:04.599Z,3.27
2022-08-22T15:17:44.377Z,3.37
2022-08-22T15:20:28.658Z,3.52
2022-08-22T15:23:10.052Z,3.77
2022-08-22T15:25:47.091Z,4.17
2022-08-22T15:28:21.701Z,4.35
2022-08-22T15:31:05.932Z,4.20
2022-08-22T15:33:43.426Z,4.03
2022-08-22T15:36:20.275Z,4.30
2022-08-22T15:38:56.003Z,3.67
2022-08-22T15:41:40.207Z,3.60
2022-08-22T15:44:17.265Z,3.33
2022-08-22T15:47:02.173Z,4.12
2022-08-22T15:49:38.587Z,3.77
2022-08-22T15:52:24.169Z,4.05
2022-08-22T15:58:16.351Z,4.33
2022-08-22T16:00:57.151Z,4.70
2022-08-22T16:03:34.448Z,3.98
2022-08-22T16:06:11.593Z,4.47
2022-08-22T16:08:51.828Z,4.55
2022-08-22T16:11:33.412Z,3.75
2022-08-22T16:14:25.284Z,3.42
2022-08-22T16:17:04.117Z,3.80
2022-08-22T16:19:41.312Z,3.90
2022-08-22T16:22:17.339Z,3.83
2022-08-22T16:25:10.199Z,4.37
2022-08-22T16:27:58.818Z,4.60
2022-08-22T16:30:40.439Z,4.05
2022-08-22T16:33:18.399Z,3.77
2022-08-22T16:36:18.880Z,3.65
2022-08-22T16:38:54.897Z,4.15
2022-08-22T16:41:40.026Z,4.75
2022-08-22T16:44:23.709Z,4.15
2022-08-22T16:47:00.679Z,5.72
2022-08-22T16:49:36.827Z,3.85
2022-08-22T16:52:44.909Z,4.65
2022-08-22T16:56:01.564Z,4.80
2022-08-22T16:59:19.587Z,4.40
2022-08-22T17:01:49.987Z,6.00
2022-08-22T17:04:27.999Z,4.80
2022-08-22T17:07:14.410Z,4.60
2022-08-22T17:09:59.005Z,5.10
2022-08-22T17:12:42.959Z,4.60
2022-08-22T17:15:22.551Z,4.60
2022-08-22T17:18:11.753Z,5.10
2022-08-22T17:20:48.869Z,5.37
2022-08-22T17:23:28.963Z,5.15
2022-08-22T17:26:05.994Z,4.50
2022-08-22T17:28:42.625Z,4.70
2022-08-22T17:31:20.138Z,5.47
2022-08-22T17:36:36.748Z,5.03
2022-08-22T17:39:15.163Z,5.60
2022-08-22T17:41:52.400Z,4.87
2022-08-22T17:44:29.231Z,5.12
2022-08-22T17:47:05.588Z,4.30
2022-08-22T17:49:49.137Z,4.95
2022-08-22T17:52:27.057Z,4.50
2022-08-22T17:55:03.717Z,5.65
2022-08-22T17:57:38.956Z,5.10
2022-08-22T18:00:18.544Z,4.95
2022-08-22T18:02:58.363Z,6.67
2022-08-22T18:05:35.377Z,4.62
2022-08-22T18:08:37.380Z,5.62
2022-08-22T18:10:51.963Z,5.22
2022-08-22T18:13:35.397Z,4.97
2022-08-22T18:16:15.443Z,5.62
2022-08-22T18:18:52.531Z,6.00
2022-08-22T18:21:29.106Z,5.85
2022-08-22T18:24:05.774Z,5.40
2022-08-22T18:26:43.768Z,5.90
2022-08-22T18:29:23.195Z,4.90
2022-08-22T18:31:59.925Z,6.17
2022-08-22T18:34:40.981Z,6.37
2022-08-22T18:37:22.156Z,5.05
2022-08-22T18:40:01.473Z,6.37
2022-08-22T18:42:37.963Z,6.80
2022-08-22T18:45:18.629Z,5.90
2022-08-22T18:48:00.270Z,6.30
2022-08-22T18:50:36.868Z,6.85
2022-08-22T18:56:25.699Z,6.12
2022-08-22T18:59:10.335Z,6.20
2022-08-22T19:01:54.192Z,6.17
2022-08-22T19:08:08.875Z,7.35
2022-08-22T19:10:53.233Z,7.35
2022-08-22T19:13:39.198Z,7.12
2022-08-22T19:16:24.812Z,6.53
2022-08-22T19:19:01.385Z,7.67
2022-08-22T19:21:54.212Z,6.58
2022-08-22T19:24:59.525Z,6.92
2022-08-22T19:33:27.680Z,7.33
2022-08-22T19:36:13.324Z,7.35
2022-08-22T19:39:09.028Z,7.28
2022-08-22T19:41:51.730Z,7.97
2022-08-22T19:44:45.777Z,7.22
2022-08-22T19:47:30.170Z,7.92
2022-08-22T19:50:07.763Z,7.42
2022-08-22T19:53:02.301Z,7.75
2022-08-22T19:55:45.256Z,7.55
2022-08-22T19:58:31.704Z,9.10
2022-08-22T20:01:00.758Z,8.18
2022-08-22T20:06:33.624Z,9.08
2022-08-22T20:09:00.809Z,8.18
2022-08-22T20:11:42.512Z,9.30
2022-08-22T20:14:30.519Z,9.08
2022-08-22T20:17:10.477Z,8.68
2022-08-22T20:22:25.684Z,9.65
2022-08-22T20:25:02.535Z,10.03
2022-08-22T20:27:39.603Z,11.22
2022-08-22T20:30:16.782Z,10.85
2022-08-22T20:32:53.979Z,11.65
2022-08-22T20:35:31.082Z,12.47
2022-08-22T20:40:56.058Z,12.78
2022-08-22T20:43:21.205Z,12.82
2022-08-22T20:45:57.999Z,14.98
2022-08-22T20:48:38.955Z,14.07
2022-08-22T20:51:16.779Z,15.60
2022-08-22T20:56:48.645Z,15.67
2022-08-22T20:59:24.785Z,14.50
2022-08-22T21:02:03.192Z,16.95
2022-08-22T21:04:44.652Z,15.93
2022-08-22T21:07:26.217Z,16.62
2022-08-22T21:10:22.753Z,17.05
2022-08-22T21:13:11.331Z,17.40
2022-08-22T21:15:47.674Z,16.32
2022-08-22T21:18:31.160Z,17.35
2022-08-22T21:21:17.188Z,17.65
2022-08-22T21:23:47.949Z,16.90
2022-08-22T21:26:27.656Z,18.73
2022-08-22T21:29:04.115Z,18.45
2022-08-22T21:31:41.753Z,17.98
2022-08-22T21:34:21.283Z,17.65
2022-08-22T21:36:57.973Z,18.87
2022-08-22T21:39:34.338Z,19.77
2022-08-22T21:42:18.052Z,19.70
2022-08-22T21:45:00.414Z,21.15
2022-08-22T21:47:37.666Z,18.32
2022-08-22T21:50:19.013Z,21.07
2022-08-22T21:53:05.982Z,20.90
2022-08-22T21:55:44.532Z,20.55
2022-08-22T21:58:36.972Z,19.27
2022-08-22T22:01:29.147Z,22.50
2022-08-22T22:04:02.620Z,19.30
2022-08-22T22:06:36.033Z,21.02
2022-08-22T22:09:14.524Z,22.55
2022-08-22T22:11:45.232Z,23.67
2022-08-22T22:14:18.734Z,23.80
2022-08-22T22:16:52.350Z,23.65
2022-08-22T22:19:26.065Z,22.40
2022-08-22T22:21:59.742Z,23.15
2022-08-22T22:24:33.116Z,24.72
2022-08-22T22:27:07.740Z,23.65
2022-08-22T22:29:41.211Z,25.43
2022-08-22T22:32:15.293Z,22.10
2022-08-22T22:34:48.848Z,22.80
2022-08-22T22:37:22.350Z,23.18
2022-08-22T22:39:56.213Z,25.45
2022-08-22T22:42:29.698Z,24.02
2022-08-22T22:45:03.540Z,25.72
2022-08-22T22:47:38.191Z,23.32
2022-08-22T22:50:12.174Z,25.85
2022-08-22T22:52:45.597Z,23.77
2022-08-22T22:55:24.308Z,25.88
2022-08-22T22:57:59.276Z,24.27
2022-08-22T23:00:33.409Z,24.18
2022-08-22T23:03:07.949Z,24.47
2022-08-22T23:05:41.500Z,24.37
2022-08-22T23:08:15.101Z,22.50
2022-08-22T23:10:48.625Z,22.80
2022-08-22T23:13:22.369Z,23.18
2022-08-22T23:15:55.965Z,23.92
2022-08-22T23:18:32.060Z,22.10
2022-08-22T23:21:16.571Z,22.00
2022-08-22T23:23:50.658Z,23.75
2022-08-22T23:26:24.479Z,21.70
2022-08-22T23:28:58.741Z,21.87
2022-08-22T23:31:35.217Z,23.45
2022-08-22T23:34:11.186Z,22.25
2022-08-22T23:36:47.190Z,21.97
2022-08-22T23:39:21.999Z,30.68
2022-08-22T23:41:55.755Z,29.92
2022-08-22T23:44:31.812Z,29.20
2022-08-22T23:47:06.544Z,22.95
2022-08-22T23:49:43.846Z,22.27
2022-08-22T23:52:24.134Z,23.38
2022-08-22T23:54:57.688Z,22.82
2022-08-22T23:57:31.254Z,20.85
